Time;durP1;ratioP1;P1;durP2;ratioP2;P2;SDS_P1;SDS_P2;PMS_P1;PMS_P2;Temp;Humidity;BMP_temperature;BMP_pressure;BME280_temperature;BME280_humidity;BME280_pressure;Samples;Min_cycle;Max_cycle;Signal;HPM_P1;HPM_P2
2023/11/03 00:04:36;;;;;;;2.80;1.70;;;;;;;;;;10225372;29;20042;-57
2023/11/03 00:09:37;;;;;;;3.00;1.70;;;;;;;;;;10250617;28;20027;-57
2023/11/03 00:14:38;;;;;;;4.07;1.67;;;;;;;;;;10248651;28;20031;-57
2023/11/03 00:19:38;;;;;;;7.57;1.92;;;;;;;;;;10257476;28;20034;-58
2023/11/03 00:24:40;;;;;;;2.08;1.42;;;;;;;;;;10260414;28;20050;-55
2023/11/03 00:29:41;;;;;;;7.88;1.80;;;;;;;;;;10253548;28;20098;-56
2023/11/03 00:34:42;;;;;;;4.30;1.88;;;;;;;;;;10246009;28;20380;-55
2023/11/03 00:39:42;;;;;;;6.28;2.25;;;;;;;;;;10249092;28;20055;-56
2023/11/03 00:44:43;;;;;;;3.75;1.50;;;;;;;;;;10248070;29;20098;-55
2023/11/03 00:49:44;;;;;;;2.88;1.52;;;;;;;;;;10245979;28;20081;-56
2023/11/03 00:54:45;;;;;;;4.30;1.70;;;;;;;;;;10237402;28;20101;-55
2023/11/03 00:59:45;;;;;;;4.43;1.77;;;;;;;;;;10246006;28;20078;-56
2023/11/03 01:04:46;;;;;;;5.63;1.60;;;;;;;;;;10246330;28;20034;-58
2023/11/03 01:09:46;;;;;;;3.80;1.67;;;;;;;;;;10246386;28;20023;-56
2023/11/03 01:14:47;;;;;;;12.45;1.90;;;;;;;;;;10247528;28;20039;-57
2023/11/03 01:19:47;;;;;;;2.95;1.70;;;;;;;;;;10243930;28;20030;-57
2023/11/03 01:24:52;;;;;;;3.03;1.40;;;;;;;;;;10248099;28;20035;-58
2023/11/03 01:29:52;;;;;;;3.42;1.50;;;;;;;;;;10245564;28;20181;-57
2023/11/03 01:34:53;;;;;;;3.80;1.70;;;;;;;;;;10247013;28;20135;-58
2023/11/03 01:39:54;;;;;;;2.95;1.70;;;;;;;;;;10244309;28;20039;-57
2023/11/03 01:44:54;;;;;;;5.63;1.63;;;;;;;;;;10247211;28;20031;-58
2023/11/03 01:49:56;;;;;;;2.95;2.00;;;;;;;;;;10237021;28;20027;-58
2023/11/03 01:54:57;;;;;;;6.30;1.50;;;;;;;;;;10238779;28;20039;-63
2023/11/03 01:59:57;;;;;;;11.68;1.60;;;;;;;;;;10245309;28;20039;-56
2023/11/03 02:04:58;;;;;;;4.35;1.40;;;;;;;;;;10246271;29;20028;-57
2023/11/03 02:09:58;;;;;;;1.52;1.42;;;;;;;;;;10244056;28;20106;-56
2023/11/03 02:14:59;;;;;;;3.80;1.20;;;;;;;;;;10245863;28;20080;-57
2023/11/03 02:20:01;;;;;;;2.47;1.73;;;;;;;;;;10233209;28;20031;-58
2023/11/03 02:25:02;;;;;;;3.67;1.92;;;;;;;;;;10246011;28;20391;-55
2023/11/03 02:30:04;;;;;;;8.15;1.65;;;;;;;;;;10243486;28;20039;-55
2023/11/03 02:35:05;;;;;;;7.18;1.98;;;;;;;;;;10245131;29;20538;-56
2023/11/03 02:40:07;;;;;;;3.03;1.40;;;;;;;;;;10242946;28;20387;-54
2023/11/03 02:45:10;;;;;;;2.75;1.65;;;;;;;;;;10246043;28;20074;-54
2023/11/03 02:50:11;;;;;;;2.58;1.58;;;;;;;;;;10240884;28;20040;-56
2023/11/03 02:55:11;;;;;;;2.03;1.27;;;;;;;;;;10136699;28;20114;-53
2023/11/03 03:00:14;;;;;;;2.45;1.52;;;;;;;;;;10197642;28;20030;-54
2023/11/03 03:05:15;;;;;;;1.40;1.25;;;;;;;;;;10252155;28;20114;-55
2023/11/03 03:10:15;;;;;;;3.47;1.50;;;;;;;;;;10251347;29;20031;-56
2023/11/03 03:15:16;;;;;;;2.05;1.10;;;;;;;;;;10251630;28;20030;-54
2023/11/03 03:20:17;;;;;;;3.05;1.33;;;;;;;;;;10251776;28;20015;-54
2023/11/03 03:25:18;;;;;;;2.88;1.60;;;;;;;;;;10250710;29;20547;-56
2023/11/03 03:30:19;;;;;;;2.28;1.50;;;;;;;;;;10251549;28;20035;-56
2023/11/03 03:35:19;;;;;;;2.35;1.30;;;;;;;;;;10250198;29;20553;-55
2023/11/03 03:40:20;;;;;;;2.35;1.23;;;;;;;;;;10250879;28;20090;-56
2023/11/03 03:45:20;;;;;;;4.15;1.50;;;;;;;;;;10249001;28;20039;-55
2023/11/03 03:50:21;;;;;;;2.20;1.30;;;;;;;;;;10249139;28;20047;-54
2023/11/03 03:55:21;;;;;;;2.47;1.40;;;;;;;;;;10247786;28;20042;-56
2023/11/03 04:00:23;;;;;;;3.65;1.40;;;;;;;;;;10250631;28;20031;-56
2023/11/03 04:05:25;;;;;;;4.05;1.30;;;;;;;;;;10163215;28;20047;-58
2023/11/03 04:10:25;;;;;;;3.05;1.30;;;;;;;;;;10181214;28;20047;-54
2023/11/03 04:15:26;;;;;;;1.30;1.20;;;;;;;;;;10248279;29;20035;-57
2023/11/03 04:20:26;;;;;;;1.73;1.20;;;;;;;;;;10243316;28;20047;-55
2023/11/03 04:25:27;;;;;;;1.60;1.30;;;;;;;;;;10248603;28;20039;-55
2023/11/03 04:30:27;;;;;;;2.22;1.17;;;;;;;;;;10248011;28;20035;-56
2023/11/03 04:35:29;;;;;;;3.17;1.45;;;;;;;;;;10249323;29;20059;-56
2023/11/03 04:40:30;;;;;;;2.45;1.40;;;;;;;;;;10247170;28;20138;-59
2023/11/03 04:45:30;;;;;;;1.67;1.23;;;;;;;;;;10249364;28;20038;-56
2023/11/03 04:50:31;;;;;;;2.05;1.15;;;;;;;;;;10248055;29;20058;-54
2023/11/03 04:55:32;;;;;;;1.40;1.25;;;;;;;;;;10248796;29;20023;-56
2023/11/03 05:00:32;;;;;;;1.23;1.10;;;;;;;;;;10246432;29;20035;-56
2023/11/03 05:05:33;;;;;;;0.90;0.90;;;;;;;;;;10247750;28;20035;-55
2023/11/03 05:10:34;;;;;;;3.40;1.40;;;;;;;;;;10239014;28;20110;-55
2023/11/03 05:15:34;;;;;;;2.80;1.23;;;;;;;;;;10240833;28;20060;-59
2023/11/03 05:20:35;;;;;;;2.63;1.20;;;;;;;;;;10164615;28;20039;-55
2023/11/03 05:25:35;;;;;;;1.02;0.90;;;;;;;;;;10241072;28;20102;-53
2023/11/03 05:30:36;;;;;;;2.78;1.35;;;;;;;;;;10237864;28;20043;-51
2023/11/03 05:35:37;;;;;;;1.27;1.15;;;;;;;;;;10246019;29;20114;-56
2023/11/03 05:40:38;;;;;;;1.42;1.10;;;;;;;;;;10246970;28;20031;-57
2023/11/03 05:45:39;;;;;;;1.77;1.10;;;;;;;;;;10246230;29;20511;-57
2023/11/03 05:50:39;;;;;;;1.35;1.25;;;;;;;;;;10246199;28;20121;-61
2023/11/03 05:55:41;;;;;;;4.22;1.35;;;;;;;;;;10242870;29;20035;-61
2023/11/03 06:00:42;;;;;;;2.17;1.05;;;;;;;;;;10240125;28;20036;-57
2023/11/03 06:05:42;;;;;;;2.15;1.20;;;;;;;;;;10240218;29;20023;-55
2023/11/03 06:10:43;;;;;;;1.67;1.10;;;;;;;;;;10245749;28;20027;-58
2023/11/03 06:15:44;;;;;;;1.83;1.25;;;;;;;;;;10242062;28;20033;-58
2023/11/03 06:20:44;;;;;;;1.25;0.90;;;;;;;;;;10241588;28;20128;-56
2023/11/03 06:25:45;;;;;;;0.90;0.90;;;;;;;;;;10242206;29;20038;-57
2023/11/03 06:30:46;;;;;;;1.10;1.00;;;;;;;;;;10199607;28;20050;-62
2023/11/03 06:35:46;;;;;;;2.85;1.05;;;;;;;;;;10121598;28;20023;-59
2023/11/03 06:40:47;;;;;;;1.25;1.10;;;;;;;;;;10243153;28;20054;-52
2023/11/03 06:45:47;;;;;;;2.42;1.05;;;;;;;;;;10226644;29;20027;-55
2023/11/03 06:50:48;;;;;;;0.95;0.95;;;;;;;;;;10220941;28;20055;-57
2023/11/03 06:55:48;;;;;;;1.10;1.00;;;;;;;;;;10243543;28;20039;-53
2023/11/03 07:00:49;;;;;;;3.13;1.35;;;;;;;;;;10244756;28;20031;-56
2023/11/03 07:05:50;;;;;;;2.38;1.40;;;;;;;;;;10242213;28;20042;-55
2023/11/03 07:10:50;;;;;;;8.38;1.38;;;;;;;;;;10238020;28;20191;-54
2023/11/03 07:15:51;;;;;;;3.65;1.40;;;;;;;;;;10239003;28;20034;-56
2023/11/03 07:20:53;;;;;;;1.83;1.50;;;;;;;;;;10242603;29;20519;-51
2023/11/03 07:25:56;;;;;;;3.85;1.33;;;;;;;;;;10234626;28;20102;-54
2023/11/03 07:30:57;;;;;;;3.15;1.30;;;;;;;;;;10234270;28;20047;-53
2023/11/03 07:35:58;;;;;;;8.02;1.10;;;;;;;;;;10250668;28;20035;-54
2023/11/03 07:40:58;;;;;;;4.60;1.52;;;;;;;;;;10250701;28;20053;-53
2023/11/03 07:45:59;;;;;;;4.30;1.55;;;;;;;;;;10245530;28;20030;-54
2023/11/03 07:50:59;;;;;;;4.03;1.58;;;;;;;;;;10225364;28;20062;-53
2023/11/03 07:56:00;;;;;;;7.00;1.50;;;;;;;;;;10247029;28;20074;-53
2023/11/03 08:01:01;;;;;;;2.67;1.38;;;;;;;;;;10244296;28;20561;-54
2023/11/03 08:06:01;;;;;;;3.97;1.50;;;;;;;;;;10235789;28;20548;-55
2023/11/03 08:11:03;;;;;;;2.63;1.20;;;;;;;;;;10245370;28;20043;-55
2023/11/03 08:16:06;;;;;;;1.40;1.23;;;;;;;;;;10220935;28;20078;-53
2023/11/03 08:21:07;;;;;;;7.25;2.30;;;;;;;;;;10249332;28;20031;-58
2023/11/03 08:26:09;;;;;;;10.90;2.15;;;;;;;;;;10248551;28;20029;-54
2023/11/03 08:31:11;;;;;;;2.95;1.80;;;;;;;;;;10240359;28;20043;-61
2023/11/03 08:36:11;;;;;;;4.70;1.73;;;;;;;;;;10243143;28;20158;-53
2023/11/03 08:41:12;;;;;;;3.33;1.70;;;;;;;;;;10241943;28;20031;-55
2023/11/03 08:46:12;;;;;;;3.72;1.60;;;;;;;;;;10244250;28;20027;-55
2023/11/03 08:51:16;;;;;;;6.90;1.88;;;;;;;;;;10236076;28;20051;-53
2023/11/03 08:56:17;;;;;;;1.35;1.23;;;;;;;;;;10240271;28;20460;-57
2023/11/03 09:01:18;;;;;;;4.78;1.70;;;;;;;;;;10233585;28;20059;-52
2023/11/03 09:06:19;;;;;;;5.68;1.38;;;;;;;;;;10243379;28;20027;-51
2023/11/03 09:11:19;;;;;;;5.28;1.60;;;;;;;;;;10240645;28;20103;-55
2023/11/03 09:16:22;;;;;;;5.93;1.30;;;;;;;;;;10241176;28;20035;-50
2023/11/03 09:21:23;;;;;;;5.25;1.70;;;;;;;;;;10232800;28;20058;-54
2023/11/03 09:26:23;;;;;;;12.07;1.52;;;;;;;;;;10238059;28;20066;-53
2023/11/03 09:31:24;;;;;;;2.40;1.40;;;;;;;;;;10241073;28;20031;-53
2023/11/03 09:36:25;;;;;;;2.55;1.45;;;;;;;;;;10239692;28;20533;-61
2023/11/03 09:41:27;;;;;;;2.95;1.40;;;;;;;;;;10239261;28;20051;-54
2023/11/03 09:46:28;;;;;;;9.88;1.45;;;;;;;;;;10237007;28;20042;-51
2023/11/03 09:51:29;;;;;;;4.05;1.60;;;;;;;;;;10237913;28;20087;-55
2023/11/03 09:56:32;;;;;;;2.13;1.33;;;;;;;;;;10239427;28;20042;-55
2023/11/03 10:01:33;;;;;;;2.85;1.38;;;;;;;;;;10237959;28;20102;-56
2023/11/03 10:06:34;;;;;;;1.88;1.10;;;;;;;;;;10231542;28;20110;-55
2023/11/03 10:11:36;;;;;;;1.75;1.38;;;;;;;;;;10241296;28;20462;-53
2023/11/03 10:16:38;;;;;;;1.67;1.23;;;;;;;;;;10239225;28;20046;-55
2023/11/03 10:21:39;;;;;;;3.55;1.40;;;;;;;;;;10240909;28;20035;-61
2023/11/03 10:26:40;;;;;;;3.38;1.30;;;;;;;;;;10239175;28;20498;-58
2023/11/03 10:31:40;;;;;;;1.48;1.38;;;;;;;;;;10238534;28;20461;-50
2023/11/03 10:36:41;;;;;;;1.10;0.90;;;;;;;;;;10237743;28;20079;-53
2023/11/03 10:41:43;;;;;;;3.45;1.25;;;;;;;;;;10243315;28;20042;-48
2023/11/03 10:47:05;;;;;;;1.48;1.20;;;;;;;;;;10224624;28;20507;-50
2023/11/03 10:52:25;;;;;;;2.13;1.20;;;;;;;;;;10240473;28;20054;-53
2023/11/03 10:57:26;;;;;;;1.25;1.00;;;;;;;;;;10235319;28;20050;-58
2023/11/03 11:03:24;;;;;;;2.30;1.10;;;;;;;;;;10240228;28;20027;-54
2023/11/03 11:08:28;;;;;;;2.23;1.10;;;;;;;;;;10244666;28;20039;-56
2023/11/03 11:13:29;;;;;;;3.38;1.40;;;;;;;;;;10240322;28;20089;-59
2023/11/03 11:18:41;;;;;;;4.70;1.02;;;;;;;;;;10247544;28;20119;-54
2023/11/03 11:23:47;;;;;;;2.10;1.00;;;;;;;;;;10251896;28;20042;-57
2023/11/03 11:28:49;;;;;;;2.67;1.42;;;;;;;;;;10250501;28;20041;-52
2023/11/03 11:34:17;;;;;;;2.70;1.10;;;;;;;;;;10249628;28;20042;-54
2023/11/03 11:39:22;;;;;;;1.52;1.10;;;;;;;;;;10249345;28;20105;-52
2023/11/03 11:44:25;;;;;;;2.97;1.20;;;;;;;;;;10250833;28;20027;-53
2023/11/03 11:49:29;;;;;;;1.73;1.10;;;;;;;;;;10250678;28;20459;-52
2023/11/03 11:54:29;;;;;;;3.30;1.13;;;;;;;;;;10248975;28;20480;-52
2023/11/03 11:59:32;;;;;;;2.45;1.15;;;;;;;;;;10250405;28;20094;-54
2023/11/03 12:04:33;;;;;;;1.33;1.23;;;;;;;;;;10249489;28;20431;-53
2023/11/03 12:09:37;;;;;;;1.42;1.20;;;;;;;;;;10244981;28;20038;-51
2023/11/03 12:14:38;;;;;;;1.85;1.00;;;;;;;;;;10249825;28;20054;-51
2023/11/03 12:19:40;;;;;;;1.75;1.35;;;;;;;;;;10238892;28;20555;-52
2023/11/03 12:24:41;;;;;;;1.50;1.13;;;;;;;;;;10248974;28;20075;-52
2023/11/03 12:29:41;;;;;;;0.90;0.85;;;;;;;;;;10248453;28;20090;-56
2023/11/03 12:34:43;;;;;;;1.13;1.02;;;;;;;;;;10248096;28;20118;-58
2023/11/03 12:39:49;;;;;;;1.77;1.23;;;;;;;;;;10248480;28;20041;-53
2023/11/03 12:45:00;;;;;;;1.67;1.05;;;;;;;;;;10238747;28;20252;-56
2023/11/03 12:50:18;;;;;;;1.58;1.08;;;;;;;;;;10247430;28;20143;-60
2023/11/03 12:55:26;;;;;;;1.70;1.35;;;;;;;;;;10247897;28;20042;-60
2023/11/03 13:00:36;;;;;;;1.17;0.85;;;;;;;;;;10248160;28;20050;-52
2023/11/03 13:05:37;;;;;;;1.48;1.00;;;;;;;;;;10242131;28;20466;-52
2023/11/03 13:10:40;;;;;;;3.25;0.88;;;;;;;;;;10241874;28;20031;-53
2023/11/03 13:15:41;;;;;;;2.47;1.20;;;;;;;;;;10245721;28;20035;-53
2023/11/03 13:20:45;;;;;;;1.05;0.90;;;;;;;;;;10245443;28;20383;-50
2023/11/03 13:25:46;;;;;;;1.45;1.05;;;;;;;;;;10246421;28;20070;-52
2023/11/03 13:30:47;;;;;;;1.77;1.30;;;;;;;;;;10246743;28;20028;-52
2023/11/03 13:35:48;;;;;;;1.67;1.00;;;;;;;;;;10243503;28;20646;-52
2023/11/03 13:40:50;;;;;;;3.03;1.15;;;;;;;;;;10244723;28;20026;-52
2023/11/03 13:45:52;;;;;;;0.77;0.77;;;;;;;;;;10245050;28;20667;-54
2023/11/03 13:50:53;;;;;;;0.93;0.93;;;;;;;;;;10241960;28;20055;-53
2023/11/03 13:55:53;;;;;;;6.38;1.15;;;;;;;;;;10242435;28;20578;-57
2023/11/03 14:00:54;;;;;;;5.88;1.15;;;;;;;;;;10259382;28;20500;-56
2023/11/03 14:05:55;;;;;;;1.02;1.00;;;;;;;;;;10242286;28;20023;-53
2023/11/03 14:10:57;;;;;;;1.85;0.90;;;;;;;;;;10233931;28;20043;-54
2023/11/03 14:16:02;;;;;;;1.05;0.90;;;;;;;;;;10241311;28;20023;-64
2023/11/03 14:21:03;;;;;;;0.93;0.93;;;;;;;;;;10243445;28;20131;-62
2023/11/03 14:26:04;;;;;;;3.60;1.08;;;;;;;;;;10244331;28;20046;-54
2023/11/03 14:31:05;;;;;;;1.38;0.90;;;;;;;;;;10244624;28;20066;-59
2023/11/03 14:36:07;;;;;;;7.68;1.42;;;;;;;;;;10244326;28;20035;-61
2023/11/03 14:41:09;;;;;;;2.25;1.08;;;;;;;;;;10246202;28;20130;-54
2023/11/03 14:46:10;;;;;;;1.13;1.00;;;;;;;;;;10244353;28;20031;-61
2023/11/03 14:51:11;;;;;;;2.38;1.10;;;;;;;;;;10245125;28;20050;-61
2023/11/03 14:56:12;;;;;;;2.33;1.23;;;;;;;;;;10251714;28;20043;-57
2023/11/03 15:01:15;;;;;;;2.17;0.90;;;;;;;;;;10250741;28;20162;-62
2023/11/03 15:06:20;;;;;;;13.52;1.77;;;;;;;;;;10247517;28;20081;-62
2023/11/03 15:11:26;;;;;;;1.45;1.23;;;;;;;;;;10243425;28;20074;-54
2023/11/03 15:16:29;;;;;;;1.70;1.10;;;;;;;;;;10252517;28;20502;-59
2023/11/03 15:21:30;;;;;;;4.25;1.27;;;;;;;;;;10251600;28;20034;-54
2023/11/03 15:26:32;;;;;;;2.13;1.13;;;;;;;;;;10251315;28;20046;-52
2023/11/03 15:31:33;;;;;;;4.25;1.30;;;;;;;;;;10246099;28;20057;-52
2023/11/03 15:36:33;;;;;;;2.90;1.60;;;;;;;;;;10251600;28;20034;-53
2023/11/03 15:41:34;;;;;;;8.52;1.50;;;;;;;;;;10251342;28;20125;-52
2023/11/03 15:46:35;;;;;;;2.00;1.30;;;;;;;;;;10250864;28;20031;-50
2023/11/03 15:51:35;;;;;;;2.25;1.27;;;;;;;;;;10250550;28;20055;-52
2023/11/03 15:56:36;;;;;;;4.07;1.30;;;;;;;;;;10250511;28;20090;-51
2023/11/03 16:01:38;;;;;;;4.32;1.30;;;;;;;;;;10250083;28;20035;-52
2023/11/03 16:06:39;;;;;;;3.20;1.40;;;;;;;;;;10250284;28;20042;-49
2023/11/03 16:11:41;;;;;;;1.58;1.00;;;;;;;;;;10250036;28;20031;-53
2023/11/03 16:16:41;;;;;;;1.65;1.10;;;;;;;;;;10248015;28;20102;-48
2023/11/03 16:21:42;;;;;;;2.80;1.52;;;;;;;;;;10250351;28;20035;-54
2023/11/03 16:26:43;;;;;;;2.85;1.25;;;;;;;;;;10246109;28;20035;-53
2023/11/03 16:31:43;;;;;;;1.92;1.10;;;;;;;;;;10244268;28;20491;-53
2023/11/03 16:36:44;;;;;;;23.38;1.77;;;;;;;;;;10248200;28;21882;-49
2023/11/03 16:41:45;;;;;;;3.88;1.40;;;;;;;;;;10248527;28;20447;-52
2023/11/03 16:46:46;;;;;;;3.20;1.40;;;;;;;;;;10247019;28;20410;-61
2023/11/03 16:51:46;;;;;;;3.92;1.50;;;;;;;;;;10246808;28;20055;-53
2023/11/03 16:56:47;;;;;;;2.72;1.40;;;;;;;;;;10239015;28;20043;-51
2023/11/03 17:01:47;;;;;;;4.05;1.23;;;;;;;;;;10245426;28;20038;-55
2023/11/03 17:06:48;;;;;;;2.85;1.40;;;;;;;;;;10245285;28;20023;-54
2023/11/03 17:11:49;;;;;;;4.28;1.33;;;;;;;;;;10244613;28;20511;-58
2023/11/03 17:16:50;;;;;;;4.30;1.20;;;;;;;;;;10245183;28;20427;-56
2023/11/03 17:21:50;;;;;;;1.17;1.10;;;;;;;;;;10233605;28;20035;-62
2023/11/03 17:26:51;;;;;;;1.73;1.52;;;;;;;;;;10231342;28;20392;-60
2023/11/03 17:31:52;;;;;;;1.75;1.27;;;;;;;;;;10231854;28;20152;-62
2023/11/03 17:36:53;;;;;;;3.83;1.40;;;;;;;;;;10222651;29;20031;-54
2023/11/03 17:41:55;;;;;;;3.35;1.45;;;;;;;;;;10227413;28;20483;-55
2023/11/03 17:46:55;;;;;;;1.85;1.40;;;;;;;;;;10229026;28;20083;-53
2023/11/03 17:51:56;;;;;;;5.03;1.50;;;;;;;;;;10228483;28;20044;-53
2023/11/03 17:56:57;;;;;;;3.17;1.70;;;;;;;;;;10227861;28;20054;-53
2023/11/03 18:01:57;;;;;;;3.65;1.70;;;;;;;;;;10230502;28;20175;-54
2023/11/03 18:07:00;;;;;;;4.13;1.75;;;;;;;;;;10233909;29;20066;-57
2023/11/03 18:12:01;;;;;;;6.43;1.25;;;;;;;;;;10244992;28;20117;-55
2023/11/03 18:17:01;;;;;;;4.95;1.70;;;;;;;;;;10246257;28;20069;-54
2023/11/03 18:22:02;;;;;;;3.45;2.25;;;;;;;;;;10239869;28;20110;-55
2023/11/03 18:27:03;;;;;;;4.57;2.22;;;;;;;;;;10245021;28;20035;-55
2023/11/03 18:32:04;;;;;;;2.75;1.83;;;;;;;;;;10229981;28;20027;-59
2023/11/03 18:37:05;;;;;;;1.55;1.45;;;;;;;;;;10229341;28;20023;-60
2023/11/03 18:42:07;;;;;;;3.65;1.63;;;;;;;;;;10241465;28;20047;-58
2023/11/03 18:47:07;;;;;;;2.75;1.63;;;;;;;;;;10236996;28;20024;-55
2023/11/03 18:52:11;;;;;;;4.57;2.10;;;;;;;;;;10234649;29;20570;-54
2023/11/03 18:57:11;;;;;;;7.60;1.63;;;;;;;;;;10243116;28;20046;-53
2023/11/03 19:02:12;;;;;;;8.25;2.10;;;;;;;;;;10236388;28;20038;-54
2023/11/03 19:07:14;;;;;;;7.53;1.95;;;;;;;;;;10241906;28;20035;-54
2023/11/03 19:12:14;;;;;;;6.97;1.77;;;;;;;;;;10242664;28;20222;-58
2023/11/03 19:17:15;;;;;;;3.78;1.83;;;;;;;;;;10243279;28;20661;-54
2023/11/03 19:22:17;;;;;;;3.38;1.42;;;;;;;;;;10241229;28;20027;-53
2023/11/03 19:27:18;;;;;;;5.50;1.92;;;;;;;;;;10245139;28;20028;-51
2023/11/03 19:32:19;;;;;;;5.93;1.80;;;;;;;;;;10249980;28;20046;-54
2023/11/03 19:37:20;;;;;;;2.58;1.85;;;;;;;;;;10274940;28;20426;-56
2023/11/03 19:42:21;;;;;;;4.50;1.95;;;;;;;;;;10243579;28;20039;-53
2023/11/03 19:47:22;;;;;;;4.93;1.75;;;;;;;;;;10251938;28;20077;-53
2023/11/03 19:52:22;;;;;;;2.15;1.60;;;;;;;;;;10262970;28;20047;-53
2023/11/03 19:57:23;;;;;;;4.03;2.42;;;;;;;;;;10255693;28;20047;-58
2023/11/03 20:02:24;;;;;;;3.85;2.10;;;;;;;;;;10253561;28;20374;-53
2023/11/03 20:07:24;;;;;;;6.15;2.20;;;;;;;;;;10258550;28;20038;-56
2023/11/03 20:12:25;;;;;;;3.13;1.65;;;;;;;;;;10256810;28;20039;-52
2023/11/03 20:17:26;;;;;;;3.67;1.95;;;;;;;;;;10257370;28;20036;-53
2023/11/03 20:22:28;;;;;;;3.95;2.03;;;;;;;;;;10244694;28;20039;-55
2023/11/03 20:27:29;;;;;;;6.25;2.28;;;;;;;;;;10235736;28;20541;-53
2023/11/03 20:32:29;;;;;;;11.65;2.88;;;;;;;;;;10248965;28;20043;-57
2023/11/03 20:37:30;;;;;;;7.30;2.92;;;;;;;;;;10244585;28;20038;-59
2023/11/03 20:42:30;;;;;;;15.05;2.88;;;;;;;;;;10245729;28;20042;-55
2023/11/03 20:47:31;;;;;;;9.93;2.92;;;;;;;;;;10242186;29;20032;-55
2023/11/03 20:52:33;;;;;;;11.48;3.13;;;;;;;;;;10248018;28;20105;-54
2023/11/03 20:57:34;;;;;;;6.47;2.42;;;;;;;;;;10248329;28;20042;-58
2023/11/03 21:02:35;;;;;;;7.30;2.50;;;;;;;;;;10242250;28;20034;-55
2023/11/03 21:07:36;;;;;;;10.55;2.35;;;;;;;;;;10249332;28;20035;-51
2023/11/03 21:12:37;;;;;;;11.95;2.63;;;;;;;;;;10245510;29;20039;-48
2023/11/03 21:17:38;;;;;;;13.32;3.20;;;;;;;;;;10244757;28;20035;-48
2023/11/03 21:22:39;;;;;;;6.78;2.85;;;;;;;;;;10245820;28;20027;-50
2023/11/03 21:27:40;;;;;;;8.25;2.97;;;;;;;;;;10243114;28;20024;-51
2023/11/03 21:32:40;;;;;;;5.88;2.55;;;;;;;;;;10235718;29;20038;-53
2023/11/03 21:37:41;;;;;;;13.73;3.72;;;;;;;;;;10241458;28;20034;-54
2023/11/03 21:42:42;;;;;;;5.15;2.53;;;;;;;;;;10232849;28;20082;-52
2023/11/03 21:47:48;;;;;;;8.60;2.70;;;;;;;;;;10236952;28;20039;-52
2023/11/03 21:52:50;;;;;;;8.75;2.90;;;;;;;;;;10239630;28;20059;-54
2023/11/03 21:57:50;;;;;;;9.80;2.80;;;;;;;;;;10243520;28;20031;-53
2023/11/03 22:02:51;;;;;;;7.75;2.58;;;;;;;;;;10243803;28;20035;-52
2023/11/03 22:07:52;;;;;;;4.40;2.72;;;;;;;;;;10240886;28;20094;-58
2023/11/03 22:12:53;;;;;;;5.63;2.88;;;;;;;;;;10245266;28;20045;-51
2023/11/03 22:17:53;;;;;;;6.00;2.63;;;;;;;;;;10258399;28;20031;-53
2023/11/03 22:22:54;;;;;;;5.80;2.80;;;;;;;;;;10244801;28;20078;-53
2023/11/03 22:27:56;;;;;;;7.68;3.08;;;;;;;;;;10233996;28;20034;-51
2023/11/03 22:32:56;;;;;;;9.15;2.53;;;;;;;;;;10240451;28;20377;-50
2023/11/03 22:37:57;;;;;;;11.10;3.30;;;;;;;;;;10243526;28;20035;-49
2023/11/03 22:42:57;;;;;;;5.80;2.50;;;;;;;;;;10243230;28;20024;-51
2023/11/03 22:47:58;;;;;;;8.00;3.55;;;;;;;;;;10239775;28;20031;-52
2023/11/03 22:52:58;;;;;;;9.63;2.33;;;;;;;;;;10240313;28;20035;-56
2023/11/03 22:57:59;;;;;;;18.08;3.22;;;;;;;;;;10237392;28;20023;-51
2023/11/03 23:03:03;;;;;;;21.92;2.92;;;;;;;;;;10244603;28;20035;-53
2023/11/03 23:08:05;;;;;;;9.82;2.60;;;;;;;;;;10252671;28;20399;-50
2023/11/03 23:13:05;;;;;;;26.50;2.60;;;;;;;;;;10251079;28;20376;-52
2023/11/03 23:18:06;;;;;;;12.10;2.50;;;;;;;;;;10252982;28;20020;-54
2023/11/03 23:23:07;;;;;;;11.48;2.70;;;;;;;;;;10249831;28;20034;-54
2023/11/03 23:28:07;;;;;;;8.27;2.42;;;;;;;;;;10252259;29;20049;-54
2023/11/03 23:33:08;;;;;;;14.60;2.80;;;;;;;;;;10251246;28;20035;-53
2023/11/03 23:38:09;;;;;;;5.00;2.47;;;;;;;;;;10251012;28;20031;-55
2023/11/03 23:43:09;;;;;;;7.60;2.90;;;;;;;;;;10250272;28;20027;-54
2023/11/03 23:48:10;;;;;;;5.65;2.58;;;;;;;;;;10259052;28;20398;-51
2023/11/03 23:53:10;;;;;;;4.80;2.85;;;;;;;;;;10253125;28;20043;-53
2023/11/03 23:58:11;;;;;;;4.65;2.38;;;;;;;;;;10250085;28;20033;-57
